createdAt,value
2023-03-07T00:01:27.868Z,99287.25
2023-03-07T00:07:06.037Z,99287.16
2023-03-07T00:09:36.032Z,99284.50
2023-03-07T00:12:17.372Z,99279.31
2023-03-07T00:14:45.904Z,99246.47
2023-03-07T00:17:14.284Z,99275.00
2023-03-07T00:19:44.043Z,99235.22
2023-03-07T00:22:14.605Z,99263.69
2023-03-07T00:24:44.724Z,99217.03
2023-03-07T00:27:13.443Z,99269.78
2023-03-07T00:29:42.576Z,99264.63
2023-03-07T00:32:11.545Z,99258.63
2023-03-07T00:34:40.053Z,99265.63
2023-03-07T00:37:08.814Z,99259.53
2023-03-07T00:39:37.296Z,99256.16
2023-03-07T00:42:07.389Z,99245.91
2023-03-07T00:44:36.148Z,99253.81
2023-03-07T00:47:04.863Z,99246.91
2023-03-07T00:49:33.692Z,99241.75
2023-03-07T00:52:02.892Z,99244.34
2023-03-07T00:54:31.343Z,99235.63
2023-03-07T00:57:00.085Z,99234.75
2023-03-07T00:59:29.972Z,99216.56
2023-03-07T01:01:58.451Z,99229.59
2023-03-07T01:04:27.120Z,99223.56
2023-03-07T01:06:55.572Z,99222.75
2023-03-07T01:09:24.601Z,99221.00
2023-03-07T01:11:53.608Z,99214.09
2023-03-07T01:14:22.697Z,99218.47
2023-03-07T01:16:52.675Z,99213.28
2023-03-07T01:19:22.946Z,99211.53
2023-03-07T01:21:52.141Z,99194.19
2023-03-07T01:24:36.664Z,99195.03
2023-03-07T01:27:13.160Z,99150.81
2023-03-07T01:29:43.407Z,99179.31
2023-03-07T01:32:13.550Z,99177.53
2023-03-07T01:34:42.407Z,99177.53
2023-03-07T01:37:12.063Z,99170.53
2023-03-07T01:39:40.614Z,99166.16
2023-03-07T01:42:12.020Z,99159.19
2023-03-07T01:45:02.538Z,99152.22
2023-03-07T01:48:01.611Z,99154.84
2023-03-07T01:50:31.260Z,99143.56
2023-03-07T01:53:01.879Z,99138.34
2023-03-07T01:55:35.033Z,99134.00
2023-03-07T01:58:17.214Z,99097.66
2023-03-07T02:00:47.316Z,99129.66
2023-03-07T02:03:25.677Z,99126.19
2023-03-07T02:05:59.655Z,99124.44
2023-03-07T02:08:32.039Z,99083.78
2023-03-07T02:11:00.864Z,99114.03
2023-03-07T02:13:29.269Z,99111.50
2023-03-07T02:16:01.150Z,99101.13
2023-03-07T02:18:36.630Z,99107.22
2023-03-07T02:21:17.282Z,99104.63
2023-03-07T02:23:57.454Z,99091.66
2023-03-07T02:26:45.925Z,99083.88
2023-03-07T02:32:22.206Z,99078.72
2023-03-07T02:34:50.995Z,99076.94
2023-03-07T02:37:28.682Z,99069.19
2023-03-07T02:39:59.986Z,99077.00
2023-03-07T02:42:34.877Z,99064.00
2023-03-07T02:45:14.702Z,99063.94
2023-03-07T02:47:45.049Z,99038.88
2023-03-07T02:50:17.306Z,98991.28
2023-03-07T02:52:49.990Z,99044.75
2023-03-07T02:55:18.973Z,99044.69
2023-03-07T02:57:59.140Z,99034.19
2023-03-07T03:00:28.278Z,99023.84
2023-03-07T03:02:57.243Z,99024.78
2023-03-07T03:05:26.045Z,99020.47
2023-03-07T03:07:54.993Z,99015.28
2023-03-07T03:10:24.810Z,99017.03
2023-03-07T03:12:53.328Z,99010.09
2023-03-07T03:15:23.148Z,98992.81
2023-03-07T03:17:56.001Z,99002.34
2023-03-07T03:20:28.001Z,99001.50
2023-03-07T03:22:58.418Z,99003.22
2023-03-07T03:25:27.321Z,98992.00
2023-03-07T03:27:56.372Z,98991.13
2023-03-07T03:30:32.391Z,98980.66
2023-03-07T03:33:02.903Z,98976.31
2023-03-07T03:35:33.530Z,98978.91
2023-03-07T03:38:02.903Z,98972.84
2023-03-07T03:40:31.726Z,98978.06
2023-03-07T03:43:00.818Z,98968.53
2023-03-07T03:45:30.651Z,98965.97
2023-03-07T03:47:59.649Z,98962.50
2023-03-07T03:50:28.676Z,98954.69
2023-03-07T03:52:57.401Z,98951.25
2023-03-07T03:55:26.209Z,98941.72
2023-03-07T03:57:55.279Z,98945.22
2023-03-07T04:00:24.292Z,98945.28
2023-03-07T04:02:54.257Z,98943.47
2023-03-07T04:05:24.288Z,98938.28
2023-03-07T04:07:52.857Z,98933.94
2023-03-07T04:10:22.295Z,98933.91
2023-03-07T04:12:51.016Z,98915.66
2023-03-07T04:15:19.840Z,98919.13
2023-03-07T04:17:48.315Z,98908.72
2023-03-07T04:20:19.008Z,98907.91
2023-03-07T04:22:49.409Z,98875.06
2023-03-07T04:25:19.953Z,98895.75
2023-03-07T04:27:48.843Z,98895.75
2023-03-07T04:30:18.247Z,98899.25
2023-03-07T04:32:47.011Z,98883.63
2023-03-07T04:35:17.007Z,98884.50
2023-03-07T04:37:45.783Z,98881.88
2023-03-07T04:40:15.348Z,98867.13
2023-03-07T04:42:44.067Z,98878.31
2023-03-07T04:45:13.205Z,98868.72
2023-03-07T04:47:42.057Z,98860.88
2023-03-07T04:50:12.078Z,98857.41
2023-03-07T04:52:44.066Z,98751.31
2023-03-07T04:55:13.181Z,98849.44
2023-03-07T04:57:41.875Z,98852.03
2023-03-07T05:00:12.742Z,98841.59
2023-03-07T05:02:41.666Z,98840.72
2023-03-07T05:05:10.850Z,98812.19
2023-03-07T05:07:39.959Z,98832.78
2023-03-07T05:10:12.274Z,98793.88
2023-03-07T05:12:41.324Z,98822.19
2023-03-07T05:15:12.799Z,98824.72
2023-03-07T05:17:41.455Z,98817.75
2023-03-07T05:20:13.054Z,98783.25
2023-03-07T05:22:42.864Z,98828.06
2023-03-07T05:25:13.433Z,98817.53
2023-03-07T05:27:43.224Z,98819.19
2023-03-07T05:30:13.684Z,98814.78
2023-03-07T05:32:42.583Z,98817.25
2023-03-07T05:35:13.988Z,98792.09
2023-03-07T05:37:43.862Z,98817.00
2023-03-07T05:40:15.412Z,98820.28
2023-03-07T05:42:47.928Z,98810.59
2023-03-07T05:45:17.021Z,98806.19
2023-03-07T05:47:45.458Z,98811.38
2023-03-07T05:50:15.076Z,98807.78
2023-03-07T05:52:44.371Z,98787.81
2023-03-07T05:55:14.245Z,98798.91
2023-03-07T05:57:43.156Z,98797.06
2023-03-07T06:00:13.548Z,98797.81
2023-03-07T06:02:51.419Z,98786.47
2023-03-07T06:05:20.165Z,98793.31
2023-03-07T06:07:50.012Z,98804.69
2023-03-07T06:10:21.083Z,98801.97
2023-03-07T06:12:52.043Z,98777.94
2023-03-07T06:15:24.355Z,98745.94
2023-03-07T06:17:57.322Z,98795.06
2023-03-07T06:20:26.730Z,98801.13
2023-03-07T06:22:57.263Z,98796.91
2023-03-07T06:25:27.041Z,98804.69
2023-03-07T06:27:59.684Z,98803.03
2023-03-07T06:30:30.171Z,98812.69
2023-03-07T06:32:59.138Z,98802.25
2023-03-07T06:35:28.197Z,98799.84
2023-03-07T06:37:56.931Z,98803.19
2023-03-07T06:40:26.857Z,98796.22
2023-03-07T06:42:55.621Z,98796.00
2023-03-07T06:45:24.340Z,98798.44
2023-03-07T06:47:53.027Z,98716.63
2023-03-07T06:50:33.448Z,98798.50
2023-03-07T06:53:04.160Z,98788.78
2023-03-07T06:55:33.955Z,98790.03
2023-03-07T06:58:02.797Z,98785.50
2023-03-07T07:00:31.861Z,98786.47
2023-03-07T07:03:00.487Z,98773.56
2023-03-07T07:05:29.246Z,98782.84
2023-03-07T07:07:57.744Z,98756.28
2023-03-07T07:10:26.566Z,98781.22
2023-03-07T07:12:57.593Z,98782.00
2023-03-07T07:15:27.213Z,98781.13
2023-03-07T07:17:55.724Z,98779.31
2023-03-07T07:20:25.590Z,98786.28
2023-03-07T07:22:55.053Z,98775.69
2023-03-07T07:25:23.739Z,98773.75
2023-03-07T07:27:53.004Z,98780.59
2023-03-07T07:30:23.260Z,98783.03
2023-03-07T07:32:52.634Z,98776.06
2023-03-07T07:35:24.232Z,98778.38
2023-03-07T07:37:52.998Z,98770.44
2023-03-07T07:40:22.308Z,98775.63
2023-03-07T07:42:54.492Z,98777.31
2023-03-07T07:45:50.798Z,98775.53
2023-03-07T07:48:22.130Z,98750.34
2023-03-07T07:50:51.344Z,98765.53
2023-03-07T07:53:22.106Z,98775.69
2023-03-07T07:55:51.783Z,98770.81
2023-03-07T07:58:20.334Z,98762.78
2023-03-07T08:00:51.488Z,98728.06
2023-03-07T08:03:20.321Z,98766.56
2023-03-07T08:05:49.945Z,98757.69
2023-03-07T08:08:20.119Z,98716.13
2023-03-07T08:10:49.901Z,98758.72
2023-03-07T08:13:18.834Z,98762.47
2023-03-07T08:15:47.496Z,98761.56
2023-03-07T08:18:17.308Z,98744.41
2023-03-07T08:20:45.717Z,98758.09
2023-03-07T08:23:14.617Z,98755.00
2023-03-07T08:25:43.069Z,98728.91
2023-03-07T08:28:13.174Z,98751.50
2023-03-07T08:30:41.880Z,98751.13
2023-03-07T08:33:10.707Z,98750.88
2023-03-07T08:35:41.341Z,98761.09
2023-03-07T08:38:10.874Z,98746.69
2023-03-07T08:40:39.650Z,98750.09
2023-03-07T08:43:08.092Z,98736.56
2023-03-07T08:45:37.912Z,98754.75
2023-03-07T08:48:06.899Z,98747.41
2023-03-07T08:50:37.259Z,98750.41
2023-03-07T08:53:06.996Z,98755.41
2023-03-07T08:55:37.206Z,98706.44
2023-03-07T08:58:05.875Z,98758.72
2023-03-07T09:00:34.649Z,98758.88
2023-03-07T09:03:03.071Z,98748.09
2023-03-07T09:05:31.916Z,98753.25
2023-03-07T09:08:00.379Z,98750.34
2023-03-07T09:10:31.355Z,98746.44
2023-03-07T09:13:00.203Z,98737.59
2023-03-07T09:15:28.889Z,98739.50
2023-03-07T09:17:57.620Z,98736.44
2023-03-07T09:20:26.357Z,98747.75
2023-03-07T09:22:54.795Z,98743.94
2023-03-07T09:25:23.219Z,98742.34
2023-03-07T09:27:54.799Z,98734.66
2023-03-07T09:30:25.306Z,98737.88
2023-03-07T09:32:54.076Z,98738.34
2023-03-07T09:35:22.846Z,98724.91
2023-03-07T09:37:51.642Z,98732.47
2023-03-07T09:40:23.766Z,98723.50
2023-03-07T09:43:07.673Z,98719.25
2023-03-07T09:45:50.763Z,98725.63
2023-03-07T09:48:52.545Z,98687.31
2023-03-07T09:51:26.686Z,98724.19
2023-03-07T09:54:00.262Z,98723.28
2023-03-07T09:56:36.813Z,98714.03
2023-03-07T09:59:23.725Z,98721.75
2023-03-07T10:02:06.704Z,98678.97
2023-03-07T10:04:47.872Z,98724.63
2023-03-07T10:07:18.122Z,98721.16
2023-03-07T10:09:47.775Z,98713.91
2023-03-07T10:12:48.950Z,98717.50
2023-03-07T10:15:35.887Z,98715.38
2023-03-07T10:18:48.960Z,98682.91
2023-03-07T10:21:30.228Z,98716.53
2023-03-07T10:24:40.482Z,98712.22
2023-03-07T10:27:12.714Z,98704.06
2023-03-07T10:29:48.509Z,98705.53
2023-03-07T10:32:29.648Z,98707.09
2023-03-07T10:35:05.725Z,98705.41
2023-03-07T10:37:50.268Z,98671.06
2023-03-07T10:40:27.322Z,98704.75
2023-03-07T10:42:57.072Z,98677.03
2023-03-07T10:45:28.387Z,98710.34
2023-03-07T10:48:01.875Z,98693.25
2023-03-07T10:50:44.788Z,98695.03
2023-03-07T10:53:27.309Z,98696.66
2023-03-07T10:56:13.204Z,98684.78
2023-03-07T10:58:59.654Z,98695.72
2023-03-07T11:01:29.042Z,98646.66
2023-03-07T11:04:01.862Z,98676.06
2023-03-07T11:06:39.061Z,98672.41
2023-03-07T11:09:23.356Z,98674.91
2023-03-07T11:11:58.315Z,98670.63
2023-03-07T11:14:29.476Z,98673.28
2023-03-07T11:17:00.674Z,98671.13
2023-03-07T11:19:39.109Z,98623.59
2023-03-07T11:22:25.895Z,98667.00
2023-03-07T11:25:03.196Z,98656.75
2023-03-07T11:27:47.976Z,98652.81
2023-03-07T11:30:25.152Z,98600.06
2023-03-07T11:33:09.405Z,98653.63
2023-03-07T11:36:01.693Z,98641.00
2023-03-07T11:38:59.778Z,98633.41
2023-03-07T11:41:32.201Z,98640.56
2023-03-07T11:44:19.305Z,98630.47
2023-03-07T11:47:34.304Z,98624.69
2023-03-07T11:50:22.296Z,98617.56
2023-03-07T11:53:43.947Z,98622.56
2023-03-07T11:56:28.953Z,98617.91
2023-03-07T11:59:40.583Z,98575.66
2023-03-07T12:02:52.720Z,98607.06
2023-03-07T12:06:00.215Z,98591.59
2023-03-07T12:09:02.517Z,98599.38
2023-03-07T12:12:06.109Z,98589.81
2023-03-07T12:14:46.435Z,98589.78
2023-03-07T12:17:40.221Z,98593.03
2023-03-07T12:20:34.576Z,98583.75
2023-03-07T12:23:17.474Z,98583.44
2023-03-07T12:25:53.673Z,98568.81
2023-03-07T12:28:29.723Z,98582.63
2023-03-07T12:31:09.520Z,98574.06
2023-03-07T12:34:07.102Z,98570.91
2023-03-07T12:36:45.116Z,98580.97
2023-03-07T12:39:23.178Z,98517.91
2023-03-07T12:42:04.366Z,98574.25
2023-03-07T12:44:43.283Z,98574.31
2023-03-07T12:47:24.515Z,98570.22
2023-03-07T12:50:02.793Z,98573.06
2023-03-07T12:52:43.728Z,98562.06
2023-03-07T12:55:25.708Z,98561.44
2023-03-07T12:58:05.961Z,98561.13
2023-03-07T13:00:41.729Z,98561.38
2023-03-07T13:03:20.835Z,98558.38
2023-03-07T13:05:50.032Z,98556.50
2023-03-07T13:08:24.796Z,98559.84
2023-03-07T13:10:53.723Z,98555.06
2023-03-07T13:13:53.419Z,98562.81
2023-03-07T13:16:43.986Z,98562.19
2023-03-07T13:19:54.026Z,98559.88
2023-03-07T13:23:12.848Z,98551.34
2023-03-07T13:26:13.080Z,98437.00
2023-03-07T13:28:48.800Z,98544.88
2023-03-07T13:31:42.748Z,98554.78
2023-03-07T13:34:51.582Z,98553.38
2023-03-07T13:37:56.742Z,98545.28
2023-03-07T13:40:55.179Z,98546.94
2023-03-07T13:43:59.714Z,98545.00
2023-03-07T13:47:01.442Z,98540.44
2023-03-07T13:49:47.545Z,98533.47
2023-03-07T13:52:41.191Z,98527.16
2023-03-07T13:55:41.211Z,98525.53
2023-03-07T13:58:28.777Z,98526.75
2023-03-07T14:01:02.153Z,98521.75
2023-03-07T14:03:38.244Z,98525.28
2023-03-07T14:06:16.907Z,98484.19
2023-03-07T14:08:47.101Z,98512.91
2023-03-07T14:11:25.643Z,98517.59
2023-03-07T14:14:52.614Z,98512.63
2023-03-07T14:17:42.166Z,98521.44
2023-03-07T14:20:27.353Z,98514.47
2023-03-07T14:23:12.704Z,98508.06
2023-03-07T14:25:43.393Z,98514.81
2023-03-07T14:28:24.020Z,98505.41
2023-03-07T14:30:58.643Z,98492.66
2023-03-07T14:33:32.788Z,98494.28
2023-03-07T14:36:04.719Z,98470.41
2023-03-07T14:38:34.049Z,98494.47
2023-03-07T14:41:39.189Z,98499.63
2023-03-07T14:44:42.890Z,98511.31
2023-03-07T14:47:31.107Z,98499.81
2023-03-07T14:50:13.718Z,98470.56
2023-03-07T14:52:44.532Z,98498.44
2023-03-07T14:55:20.378Z,98498.25
2023-03-07T14:57:53.138Z,98510.69
2023-03-07T15:00:29.352Z,98509.97
2023-03-07T15:03:03.826Z,98499.19
2023-03-07T15:05:36.198Z,98512.13
2023-03-07T15:08:18.841Z,98494.78
2023-03-07T15:10:54.350Z,98506.97
2023-03-07T15:13:31.263Z,98505.56
2023-03-07T15:16:04.774Z,98519.28
2023-03-07T15:18:40.112Z,98520.44
2023-03-07T15:21:19.749Z,98561.72
2023-03-07T15:23:55.579Z,98594.44
2023-03-07T15:26:27.027Z,98594.78
2023-03-07T15:29:01.652Z,98594.47
2023-03-07T15:31:32.917Z,98551.22
2023-03-07T15:34:21.727Z,98593.94
2023-03-07T15:36:50.459Z,98598.75
2023-03-07T15:39:34.661Z,98611.38
2023-03-07T15:42:07.042Z,98609.88
2023-03-07T15:44:37.973Z,98616.94
2023-03-07T15:47:17.934Z,98615.19
2023-03-07T15:49:51.167Z,98594.50
2023-03-07T15:52:28.811Z,98612.53
2023-03-07T15:55:00.940Z,98610.03
2023-03-07T15:57:35.509Z,98611.84
2023-03-07T16:00:16.637Z,98617.06
2023-03-07T16:02:47.643Z,98612.72
2023-03-07T16:05:38.384Z,98622.31
2023-03-07T16:08:15.695Z,98624.13
2023-03-07T16:10:53.532Z,98563.03
2023-03-07T16:13:27.007Z,98584.53
2023-03-07T16:16:16.165Z,98621.47
2023-03-07T16:18:45.774Z,98572.59
2023-03-07T16:21:15.459Z,98632.75
2023-03-07T16:23:46.329Z,98574.50
2023-03-07T16:26:20.885Z,98639.88
2023-03-07T16:28:50.276Z,98645.94
2023-03-07T16:31:19.946Z,98655.41
2023-03-07T16:33:49.274Z,98648.56
2023-03-07T16:36:18.730Z,98649.47
2023-03-07T16:38:48.460Z,98650.31
2023-03-07T16:41:21.231Z,98648.50
2023-03-07T16:43:57.557Z,98650.19
2023-03-07T16:46:28.794Z,98651.97
2023-03-07T16:48:57.713Z,98655.50
2023-03-07T16:51:28.225Z,98666.81
2023-03-07T16:53:59.808Z,98670.34
2023-03-07T16:56:35.840Z,98669.44
2023-03-07T16:59:05.048Z,98674.66
2023-03-07T17:01:33.977Z,98679.88
2023-03-07T17:04:02.457Z,98621.38
2023-03-07T17:06:39.146Z,98679.88
2023-03-07T17:09:09.589Z,98682.50
2023-03-07T17:11:44.633Z,98679.03
2023-03-07T17:14:15.302Z,98683.44
2023-03-07T17:16:48.033Z,98655.22
2023-03-07T17:19:26.994Z,98658.72
2023-03-07T17:21:58.524Z,98672.50
2023-03-07T17:24:27.627Z,98686.28
2023-03-07T17:27:00.577Z,98695.78
2023-03-07T17:29:34.527Z,98690.56
2023-03-07T17:32:04.052Z,98700.22
2023-03-07T17:34:35.770Z,98699.38
2023-03-07T17:37:05.632Z,98699.47
2023-03-07T17:39:35.715Z,98715.84
2023-03-07T17:42:06.508Z,98716.75
2023-03-07T17:44:35.465Z,98684.06
2023-03-07T17:47:04.560Z,98720.22
2023-03-07T17:49:39.168Z,98725.50
2023-03-07T17:52:08.350Z,98721.22
2023-03-07T17:54:37.305Z,98723.84
2023-03-07T17:57:07.943Z,98725.63
2023-03-07T17:59:36.772Z,98732.66
2023-03-07T18:02:05.725Z,98730.81
2023-03-07T18:04:34.581Z,98699.84
2023-03-07T18:07:03.340Z,98728.97
2023-03-07T18:09:32.669Z,98726.44
2023-03-07T18:12:02.082Z,98700.66
2023-03-07T18:14:32.122Z,98695.44
2023-03-07T18:17:00.888Z,98743.00
2023-03-07T18:19:30.254Z,98743.88
2023-03-07T18:21:58.967Z,98745.66
2023-03-07T18:24:30.103Z,98745.63
2023-03-07T18:27:00.336Z,98747.34
2023-03-07T18:29:31.146Z,98747.34
2023-03-07T18:32:00.342Z,98752.59
2023-03-07T18:34:29.375Z,98756.06
2023-03-07T18:36:58.184Z,98757.88
2023-03-07T18:39:27.346Z,98760.53
2023-03-07T18:41:56.090Z,98760.66
2023-03-07T18:44:24.827Z,98758.91
2023-03-07T18:46:54.837Z,98761.53
2023-03-07T18:49:23.659Z,98763.38
2023-03-07T18:51:52.404Z,98768.56
2023-03-07T18:54:21.106Z,98768.66
2023-03-07T18:56:49.884Z,98766.97
2023-03-07T18:59:18.638Z,98767.88
2023-03-07T19:01:50.305Z,98766.16
2023-03-07T19:04:20.732Z,98728.28
2023-03-07T19:06:49.541Z,98773.16
2023-03-07T19:09:20.484Z,98776.63
2023-03-07T19:11:49.555Z,98769.66
2023-03-07T19:14:18.462Z,98779.19
2023-03-07T19:16:47.547Z,98774.81
2023-03-07T19:19:16.418Z,98770.50
2023-03-07T19:21:46.230Z,98764.50
2023-03-07T19:24:15.042Z,98767.91
2023-03-07T19:26:43.912Z,98776.59
2023-03-07T19:29:13.199Z,98768.75
2023-03-07T19:31:43.902Z,98784.47
2023-03-07T19:34:12.778Z,98789.69
2023-03-07T19:36:42.528Z,98794.03
2023-03-07T19:39:20.197Z,98785.28
2023-03-07T19:41:49.399Z,98796.53
2023-03-07T19:44:19.030Z,98800.91
2023-03-07T19:46:47.952Z,98795.78
2023-03-07T19:49:17.568Z,98795.81
2023-03-07T19:51:46.377Z,98796.69
2023-03-07T19:54:16.644Z,98747.69
2023-03-07T19:56:45.811Z,98797.69
2023-03-07T19:59:15.078Z,98798.53
2023-03-07T20:01:44.196Z,98811.56
2023-03-07T20:04:14.855Z,98795.16
2023-03-07T20:06:45.023Z,98805.44
2023-03-07T20:09:16.141Z,98802.00
2023-03-07T20:11:45.214Z,98806.28
2023-03-07T20:14:14.579Z,98806.31
2023-03-07T20:16:44.040Z,98824.59
2023-03-07T20:19:12.694Z,98824.56
2023-03-07T20:21:44.248Z,98827.16
2023-03-07T20:24:13.883Z,98826.22
2023-03-07T20:26:47.924Z,98829.78
2023-03-07T20:29:18.273Z,98826.34
2023-03-07T20:31:49.111Z,98824.56
2023-03-07T20:34:17.808Z,98810.69
2023-03-07T20:36:46.625Z,98821.16
2023-03-07T20:39:15.626Z,98821.22
2023-03-07T20:41:45.686Z,98818.63
2023-03-07T20:44:16.333Z,98821.25
2023-03-07T20:46:45.202Z,98817.75
2023-03-07T20:49:15.966Z,98819.47
2023-03-07T20:51:44.778Z,98823.75
2023-03-07T20:54:15.924Z,98782.53
2023-03-07T20:56:48.143Z,98837.75
2023-03-07T20:59:19.375Z,98846.38
2023-03-07T21:01:48.853Z,98848.97
2023-03-07T21:04:20.976Z,98849.03
2023-03-07T21:06:50.315Z,98821.34
2023-03-07T21:09:19.867Z,98801.50
2023-03-07T21:11:51.084Z,98830.88
2023-03-07T21:14:21.114Z,98832.66
2023-03-07T21:16:49.687Z,98873.31
2023-03-07T21:19:18.320Z,98862.91
2023-03-07T21:21:47.118Z,98781.81
2023-03-07T21:24:16.315Z,98874.22
2023-03-07T21:26:45.162Z,98869.94
2023-03-07T21:29:14.920Z,98843.94
2023-03-07T21:31:43.926Z,98864.63
2023-03-07T21:34:15.201Z,98863.84
2023-03-07T21:36:45.794Z,98863.03
2023-03-07T21:39:15.151Z,98879.53
2023-03-07T21:41:43.903Z,98867.47
2023-03-07T21:44:14.421Z,98868.28
2023-03-07T21:46:43.192Z,98871.72
2023-03-07T21:49:13.048Z,98885.59
2023-03-07T21:51:41.862Z,98880.41
2023-03-07T21:54:10.571Z,98892.53
2023-03-07T21:56:39.336Z,98895.13
2023-03-07T21:59:08.053Z,98888.19
2023-03-07T22:01:37.896Z,98897.75
2023-03-07T22:04:06.714Z,98897.69
2023-03-07T22:06:35.380Z,98895.06
2023-03-07T22:09:04.353Z,98892.44
2023-03-07T22:11:32.784Z,98900.28
2023-03-07T22:14:01.522Z,98895.03
2023-03-07T22:16:30.219Z,98902.84
2023-03-07T22:19:00.049Z,98867.53
2023-03-07T22:21:28.837Z,98911.53
2023-03-07T22:24:00.652Z,98895.06
2023-03-07T22:26:31.315Z,98910.72
2023-03-07T22:29:00.547Z,98905.50
2023-03-07T22:31:30.179Z,98915.91
2023-03-07T22:34:01.165Z,98895.22
2023-03-07T22:36:29.919Z,98919.34
2023-03-07T22:38:58.463Z,98921.09
2023-03-07T22:41:27.931Z,98926.31
2023-03-07T22:43:56.831Z,98922.84
2023-03-07T22:46:25.802Z,98918.50
2023-03-07T22:48:56.257Z,98922.84
2023-03-07T22:51:27.383Z,98891.75
2023-03-07T22:53:56.232Z,98914.16
2023-03-07T22:56:27.870Z,98924.63
2023-03-07T22:58:56.890Z,98924.59
2023-03-07T23:01:28.729Z,98904.72
2023-03-07T23:04:00.327Z,98930.66
2023-03-07T23:06:32.681Z,98921.09
2023-03-07T23:09:02.367Z,98926.31
2023-03-07T23:11:33.100Z,98935.00
2023-03-07T23:14:02.084Z,98932.41
2023-03-07T23:16:33.138Z,98936.75
2023-03-07T23:19:02.228Z,98932.47
2023-03-07T23:21:34.824Z,98916.09
2023-03-07T23:24:04.768Z,98935.09
2023-03-07T23:26:36.825Z,98944.59
2023-03-07T23:29:05.746Z,98946.38
2023-03-07T23:31:37.474Z,98942.94
2023-03-07T23:34:08.543Z,98944.75
2023-03-07T23:36:38.501Z,98945.59
2023-03-07T23:39:08.447Z,98949.94
2023-03-07T23:41:37.178Z,98949.88
2023-03-07T23:44:06.307Z,98950.72
2023-03-07T23:46:35.320Z,98955.09
2023-03-07T23:49:04.203Z,98956.88
2023-03-07T23:51:33.880Z,98966.47
2023-03-07T23:54:03.896Z,98966.53
2023-03-07T23:56:32.600Z,98965.59
2023-03-07T23:59:01.512Z,98976.88
